Terminal Aerodrome Forecast
Issued by NWS Hastings, NE

Home | Current Version | Previous Version | Text Only | Print | Product List | Glossary On
Versions: 1 2 3 4 5 6 7 8 9 10 11 12 13 14 15 16 17 18 19 20 21 22 23 24 25 26 27 28 29
000
FTUS43 KGID 092320
TAFGRI
TAF
KGRI 092320Z 1000/1024 28005KT P6SM BKN070
     FM100300 20004KT P6SM OVC060
     FM101400 22008KT P6SM BKN040
     FM101700 28011KT P6SM SCT040
     FM101900 31013KT P6SM SCT040
     FM102100 34014KT P6SM FEW040=

USA.gov is the U.S. government's official web portal to all federal, state and local government web resources and services.